Time;durP1;ratioP1;P1;durP2;ratioP2;P2;SDS_P1;SDS_P2;PMS_P1;PMS_P2;Temp;Humidity;BMP_temperature;BMP_pressure;BME280_temperature;BME280_humidity;BME280_pressure;Samples;Min_cycle;Max_cycle;Signal;HPM_P1;HPM_P2
2022/11/30 00:01:28;;;;;;;26.20;14.10;;;;;;;;;;5067463;28;20053;-82
2022/11/30 00:03:56;;;;;;;34.65;15.55;;;;;;;;;;5066568;28;20768;-81
2022/11/30 00:06:24;;;;;;;30.35;14.80;;;;;;;;;;5066455;28;20044;-82
2022/11/30 00:08:53;;;;;;;26.85;14.73;;;;;;;;;;5067207;28;20089;-82
2022/11/30 00:11:21;;;;;;;26.85;15.93;;;;;;;;;;5061126;28;20056;-82
2022/11/30 00:13:49;;;;;;;27.27;15.60;;;;;;;;;;5093528;28;20041;-82
2022/11/30 00:16:16;;;;;;;28.23;14.75;;;;;;;;;;5064672;28;20048;-81
2022/11/30 00:18:43;;;;;;;25.25;15.25;;;;;;;;;;5070613;28;20049;-81
2022/11/30 00:21:12;;;;;;;34.53;16.65;;;;;;;;;;5067433;28;20060;-82
2022/11/30 00:23:39;;;;;;;25.98;14.70;;;;;;;;;;5084134;28;21026;-81
2022/11/30 00:26:09;;;;;;;33.80;16.45;;;;;;;;;;5068408;28;20048;-82
2022/11/30 00:28:40;;;;;;;30.25;16.33;;;;;;;;;;5063033;28;20065;-81
2022/11/30 00:31:11;;;;;;;27.83;16.20;;;;;;;;;;5063304;28;20098;-81
2022/11/30 00:33:41;;;;;;;28.77;16.05;;;;;;;;;;5066836;28;20057;-82
2022/11/30 00:36:13;;;;;;;27.05;16.58;;;;;;;;;;5068564;28;20041;-82
2022/11/30 00:38:42;;;;;;;26.90;15.40;;;;;;;;;;5065443;28;20045;-82
2022/11/30 00:41:10;;;;;;;28.60;15.93;;;;;;;;;;5072666;28;20041;-82
2022/11/30 00:43:37;;;;;;;23.58;14.68;;;;;;;;;;5064521;28;20064;-82
2022/11/30 00:46:08;;;;;;;25.05;14.57;;;;;;;;;;5067804;28;20041;-81
2022/11/30 00:48:38;;;;;;;28.40;15.18;;;;;;;;;;5069920;28;20056;-81
2022/11/30 00:51:09;;;;;;;30.27;14.57;;;;;;;;;;5069487;28;20076;-81
2022/11/30 00:53:36;;;;;;;32.80;13.93;;;;;;;;;;5071355;28;20041;-82
2022/11/30 00:56:06;;;;;;;28.20;14.75;;;;;;;;;;5070377;28;20060;-82
2022/11/30 00:58:35;;;;;;;27.17;14.57;;;;;;;;;;5068133;28;20099;-82
2022/11/30 01:01:03;;;;;;;27.38;16.10;;;;;;;;;;5068136;28;20046;-81
2022/11/30 01:03:33;;;;;;;23.35;13.88;;;;;;;;;;5064789;28;20045;-82
2022/11/30 01:06:06;;;;;;;27.45;14.05;;;;;;;;;;5072000;28;21169;-81
2022/11/30 01:08:35;;;;;;;28.92;15.45;;;;;;;;;;5065907;28;20046;-81
2022/11/30 01:11:12;;;;;;;25.75;14.27;;;;;;;;;;5064410;28;20049;-82
2022/11/30 01:13:44;;;;;;;28.08;14.32;;;;;;;;;;5066899;28;20057;-81
2022/11/30 01:16:14;;;;;;;30.33;14.80;;;;;;;;;;5086676;28;20109;-82
2022/11/30 01:18:42;;;;;;;25.25;14.63;;;;;;;;;;5073081;28;20053;-81
2022/11/30 01:21:12;;;;;;;28.58;13.68;;;;;;;;;;5059456;28;20064;-81
2022/11/30 01:23:39;;;;;;;30.65;15.27;;;;;;;;;;5067767;28;20053;-81
2022/11/30 01:26:07;;;;;;;26.23;14.32;;;;;;;;;;5069169;28;20984;-82
2022/11/30 01:28:35;;;;;;;27.67;14.13;;;;;;;;;;5072524;28;20101;-82
2022/11/30 01:31:06;;;;;;;25.13;14.57;;;;;;;;;;5061239;28;20100;-81
2022/11/30 01:33:35;;;;;;;34.90;15.00;;;;;;;;;;5075800;28;20056;-82
2022/11/30 01:36:08;;;;;;;27.92;14.43;;;;;;;;;;5067945;28;20136;-81
2022/11/30 01:38:40;;;;;;;32.63;15.90;;;;;;;;;;5079561;28;20034;-82
2022/11/30 01:41:08;;;;;;;28.25;13.82;;;;;;;;;;5064788;28;20046;-82
2022/11/30 01:43:40;;;;;;;28.48;15.02;;;;;;;;;;5067121;28;20100;-82
2022/11/30 01:46:30;;;;;;;26.23;14.60;;;;;;;;;;5061084;28;20108;-82
2022/11/30 01:49:06;;;;;;;24.08;14.07;;;;;;;;;;5069879;28;20080;-82
2022/11/30 01:51:54;;;;;;;25.95;12.93;;;;;;;;;;5076236;28;20703;-82
2022/11/30 01:54:23;;;;;;;28.65;12.98;;;;;;;;;;5073921;28;20111;-81
2022/11/30 01:56:53;;;;;;;27.33;12.75;;;;;;;;;;5068240;28;20127;-81
2022/11/30 01:59:21;;;;;;;26.83;12.85;;;;;;;;;;5069782;28;20110;-81
2022/11/30 02:01:49;;;;;;;25.48;13.23;;;;;;;;;;5068601;28;20088;-82
2022/11/30 02:04:22;;;;;;;25.35;13.65;;;;;;;;;;5066501;28;20041;-82
2022/11/30 02:06:50;;;;;;;27.60;14.00;;;;;;;;;;5081262;28;20041;-82
2022/11/30 02:09:18;;;;;;;28.63;13.95;;;;;;;;;;5072905;28;20283;-82
2022/11/30 02:11:46;;;;;;;23.98;12.85;;;;;;;;;;5069940;28;20052;-82
2022/11/30 02:14:13;;;;;;;35.38;13.00;;;;;;;;;;5073448;28;20068;-82
2022/11/30 02:17:06;;;;;;;27.55;12.85;;;;;;;;;;5078514;28;20049;-82
2022/11/30 02:19:36;;;;;;;32.22;12.75;;;;;;;;;;5066993;28;20065;-82
2022/11/30 02:22:04;;;;;;;27.90;13.02;;;;;;;;;;5065260;28;20064;-81
2022/11/30 02:24:34;;;;;;;24.48;13.50;;;;;;;;;;5061094;28;20045;-82
2022/11/30 02:27:20;;;;;;;25.05;12.70;;;;;;;;;;5069409;28;20053;-82
2022/11/30 02:29:49;;;;;;;27.25;13.20;;;;;;;;;;5069227;28;20728;-81
2022/11/30 02:32:16;;;;;;;29.38;13.00;;;;;;;;;;5061656;28;20058;-82
2022/11/30 02:34:45;;;;;;;26.67;12.48;;;;;;;;;;5067531;28;20053;-82
2022/11/30 02:37:15;;;;;;;28.75;12.13;;;;;;;;;;5067143;28;20048;-82
2022/11/30 02:39:44;;;;;;;35.22;12.32;;;;;;;;;;5068275;28;20037;-82
2022/11/30 02:42:12;;;;;;;23.48;12.75;;;;;;;;;;5058444;28;20042;-81
2022/11/30 02:44:41;;;;;;;23.50;11.73;;;;;;;;;;5066876;28;20132;-82
2022/11/30 02:47:12;;;;;;;26.48;13.18;;;;;;;;;;5068829;28;20052;-82
2022/11/30 02:49:51;;;;;;;31.98;12.52;;;;;;;;;;5071861;28;20053;-82
2022/11/30 02:52:21;;;;;;;20.10;11.15;;;;;;;;;;5071407;28;20041;-82
2022/11/30 02:54:48;;;;;;;27.20;12.50;;;;;;;;;;5066621;28;20056;-82
2022/11/30 02:57:15;;;;;;;25.58;12.70;;;;;;;;;;5084694;28;20049;-82
2022/11/30 02:59:43;;;;;;;23.48;11.20;;;;;;;;;;5066340;28;20057;-82
2022/11/30 03:02:10;;;;;;;26.00;12.13;;;;;;;;;;5069819;28;20073;-82
2022/11/30 03:04:40;;;;;;;28.67;11.05;;;;;;;;;;5069721;28;20033;-82
2022/11/30 03:07:10;;;;;;;24.98;12.90;;;;;;;;;;5069166;28;20048;-81
2022/11/30 03:09:40;;;;;;;25.73;10.98;;;;;;;;;;5069944;28;20049;-82
2022/11/30 03:12:07;;;;;;;39.28;13.02;;;;;;;;;;5065399;28;20060;-82
2022/11/30 03:14:35;;;;;;;26.98;12.57;;;;;;;;;;5068126;28;20068;-82
2022/11/30 03:17:05;;;;;;;31.77;12.75;;;;;;;;;;5062609;28;20084;-82
2022/11/30 03:19:33;;;;;;;24.92;11.75;;;;;;;;;;5071376;28;20029;-82
2022/11/30 03:22:00;;;;;;;28.67;12.43;;;;;;;;;;5065856;28;20906;-82
2022/11/30 03:24:28;;;;;;;30.17;12.55;;;;;;;;;;5072811;28;20116;-82
2022/11/30 03:26:55;;;;;;;24.17;12.20;;;;;;;;;;5058837;28;20037;-82
2022/11/30 03:29:23;;;;;;;30.08;12.77;;;;;;;;;;5067644;28;20053;-82
2022/11/30 03:31:51;;;;;;;25.30;13.60;;;;;;;;;;5065249;28;20053;-82
2022/11/30 03:34:18;;;;;;;39.30;12.05;;;;;;;;;;5070391;28;20058;-82
2022/11/30 03:36:46;;;;;;;32.15;12.68;;;;;;;;;;5066264;28;20045;-81
2022/11/30 03:39:13;;;;;;;27.25;12.55;;;;;;;;;;5086146;28;20064;-82
2022/11/30 03:41:42;;;;;;;28.35;12.00;;;;;;;;;;5065744;28;20064;-82
2022/11/30 03:44:10;;;;;;;35.38;12.68;;;;;;;;;;5064270;28;20113;-81
2022/11/30 03:46:37;;;;;;;24.73;11.60;;;;;;;;;;5069039;28;20052;-82
2022/11/30 03:49:04;;;;;;;27.83;12.48;;;;;;;;;;5072666;28;20052;-81
2022/11/30 03:51:32;;;;;;;25.17;11.13;;;;;;;;;;5065339;28;20038;-81
2022/11/30 03:53:59;;;;;;;31.75;11.70;;;;;;;;;;5067244;28;20049;-81
2022/11/30 03:56:30;;;;;;;28.10;10.68;;;;;;;;;;5066375;28;20048;-82
2022/11/30 03:58:58;;;;;;;31.48;11.13;;;;;;;;;;5058983;28;20096;-82
2022/11/30 04:01:26;;;;;;;22.15;11.23;;;;;;;;;;5061129;28;20110;-82
2022/11/30 04:03:54;;;;;;;19.10;10.63;;;;;;;;;;5070655;28;20045;-82
2022/11/30 04:06:21;;;;;;;27.15;11.25;;;;;;;;;;5063452;28;20038;-82
2022/11/30 04:08:49;;;;;;;20.05;10.15;;;;;;;;;;5072392;28;20053;-81
2022/11/30 04:11:16;;;;;;;20.75;10.18;;;;;;;;;;5069102;28;20049;-81
2022/11/30 04:13:43;;;;;;;24.08;10.80;;;;;;;;;;5070705;28;20104;-81
2022/11/30 04:16:11;;;;;;;20.65;10.00;;;;;;;;;;5074199;28;20042;-82
2022/11/30 04:18:41;;;;;;;18.45;9.35;;;;;;;;;;5089101;28;20040;-82
2022/11/30 04:21:12;;;;;;;24.77;9.85;;;;;;;;;;5072142;28;20070;-81
2022/11/30 04:23:39;;;;;;;23.85;9.80;;;;;;;;;;5070602;28;20046;-81
2022/11/30 04:26:11;;;;;;;26.75;10.30;;;;;;;;;;5068798;28;20051;-82
2022/11/30 04:28:45;;;;;;;20.80;9.70;;;;;;;;;;5077169;28;20036;-81
2022/11/30 04:31:12;;;;;;;22.88;10.70;;;;;;;;;;5062598;28;20050;-82
2022/11/30 04:33:41;;;;;;;25.83;10.20;;;;;;;;;;5071126;28;20491;-82
2022/11/30 04:36:18;;;;;;;41.15;9.90;;;;;;;;;;5070784;28;20045;-82
2022/11/30 04:38:46;;;;;;;23.15;10.57;;;;;;;;;;5069505;28;20050;-82
2022/11/30 04:41:14;;;;;;;29.90;10.50;;;;;;;;;;5070137;28;20969;-82
2022/11/30 04:43:42;;;;;;;22.90;10.63;;;;;;;;;;5066234;28;20072;-81
2022/11/30 04:46:11;;;;;;;17.73;9.50;;;;;;;;;;5066712;28;20045;-81
2022/11/30 04:48:39;;;;;;;21.92;9.90;;;;;;;;;;5066879;28;20148;-82
2022/11/30 04:51:07;;;;;;;16.58;10.10;;;;;;;;;;5064044;28;20046;-82
2022/11/30 04:53:36;;;;;;;19.98;9.50;;;;;;;;;;5069458;28;20041;-82
2022/11/30 04:56:08;;;;;;;22.77;11.50;;;;;;;;;;5065717;28;20056;-81
2022/11/30 04:58:37;;;;;;;22.48;10.18;;;;;;;;;;5066239;28;20030;-81
2022/11/30 05:01:05;;;;;;;16.38;9.57;;;;;;;;;;5068983;28;20040;-82
2022/11/30 05:03:32;;;;;;;24.38;11.05;;;;;;;;;;5075326;28;20075;-82
2022/11/30 05:05:59;;;;;;;29.15;11.25;;;;;;;;;;5069485;28;20499;-82
2022/11/30 05:08:26;;;;;;;28.65;11.18;;;;;;;;;;5075184;28;20030;-81
2022/11/30 05:10:54;;;;;;;36.22;10.48;;;;;;;;;;5063968;28;20045;-81
2022/11/30 05:13:22;;;;;;;18.63;9.50;;;;;;;;;;5071995;28;20197;-82
2022/11/30 05:15:51;;;;;;;29.23;9.18;;;;;;;;;;5076110;28;20057;-83
2022/11/30 05:18:21;;;;;;;33.38;9.45;;;;;;;;;;5067823;28;20061;-82
2022/11/30 05:20:49;;;;;;;20.42;10.00;;;;;;;;;;5066037;28;20049;-81
2022/11/30 05:23:16;;;;;;;19.23;9.27;;;;;;;;;;5069544;28;20041;-82
2022/11/30 05:25:44;;;;;;;20.83;8.18;;;;;;;;;;5070412;28;20065;-82
2022/11/30 05:28:29;;;;;;;25.45;8.13;;;;;;;;;;5081050;28;20046;-82
2022/11/30 05:31:04;;;;;;;26.85;9.65;;;;;;;;;;5071408;28;20041;-81
2022/11/30 05:33:32;;;;;;;34.20;10.95;;;;;;;;;;5076954;28;20065;-81
2022/11/30 05:36:00;;;;;;;25.35;10.98;;;;;;;;;;5063667;28;20950;-82
2022/11/30 05:38:36;;;;;;;24.77;9.57;;;;;;;;;;5068644;28;20079;-81
2022/11/30 05:41:03;;;;;;;22.77;10.70;;;;;;;;;;5066690;28;20584;-82
2022/11/30 05:43:30;;;;;;;29.30;11.70;;;;;;;;;;5073094;28;20057;-82
2022/11/30 05:45:59;;;;;;;33.78;10.82;;;;;;;;;;5080621;28;20046;-81
2022/11/30 05:48:26;;;;;;;26.20;11.40;;;;;;;;;;5064103;28;20045;-82
2022/11/30 05:50:55;;;;;;;27.20;11.57;;;;;;;;;;5069831;28;20046;-82
2022/11/30 05:53:23;;;;;;;25.60;11.93;;;;;;;;;;5070895;28;20049;-82
2022/11/30 05:55:50;;;;;;;31.08;12.05;;;;;;;;;;5070395;28;20041;-81
2022/11/30 05:58:17;;;;;;;26.25;12.32;;;;;;;;;;5065109;28;20029;-82
2022/11/30 06:00:47;;;;;;;31.08;11.43;;;;;;;;;;5068374;28;20049;-82
2022/11/30 06:03:14;;;;;;;28.60;11.68;;;;;;;;;;5066272;28;20410;-81
2022/11/30 06:05:41;;;;;;;23.75;11.50;;;;;;;;;;5065223;28;20045;-82
2022/11/30 06:08:41;;;;;;;;;;;;;;;;;;;;;
2022/11/30 06:11:15;;;;;;;26.27;11.23;;;;;;;;;;5063886;28;20747;-82
2022/11/30 06:13:46;;;;;;;28.42;10.80;;;;;;;;;;5066957;28;20073;-82
2022/11/30 06:16:15;;;;;;;30.17;13.07;;;;;;;;;;5054147;28;20064;-82
2022/11/30 06:18:47;;;;;;;27.92;12.15;;;;;;;;;;5064664;28;20029;-82
2022/11/30 06:21:21;;;;;;;27.60;12.02;;;;;;;;;;5069351;28;20053;-81
2022/11/30 06:23:54;;;;;;;31.70;12.27;;;;;;;;;;5064821;28;20105;-82
2022/11/30 06:26:22;;;;;;;33.10;10.60;;;;;;;;;;5058069;28;20069;-82
2022/11/30 06:28:52;;;;;;;24.60;7.53;;;;;;;;;;5074406;28;20112;-82
2022/11/30 06:31:22;;;;;;;18.10;7.15;;;;;;;;;;5065328;28;20072;-82
2022/11/30 06:33:50;;;;;;;14.73;7.95;;;;;;;;;;5068479;28;20049;-83
2022/11/30 06:36:24;;;;;;;18.73;7.28;;;;;;;;;;5069793;28;20049;-82
2022/11/30 06:38:54;;;;;;;22.58;8.57;;;;;;;;;;5056269;28;20034;-82
2022/11/30 06:41:21;;;;;;;25.17;8.32;;;;;;;;;;5060958;28;20050;-83
2022/11/30 06:43:49;;;;;;;15.55;6.80;;;;;;;;;;5062108;28;20084;-82
2022/11/30 06:46:18;;;;;;;13.88;7.35;;;;;;;;;;5058395;28;20053;-81
2022/11/30 06:48:48;;;;;;;21.52;7.57;;;;;;;;;;5065207;28;20053;-82
2022/11/30 06:51:18;;;;;;;15.88;7.60;;;;;;;;;;5066917;28;20052;-82
2022/11/30 06:53:46;;;;;;;20.63;8.68;;;;;;;;;;5077228;28;20057;-82
2022/11/30 06:56:16;;;;;;;14.23;7.07;;;;;;;;;;5073510;28;20037;-82
2022/11/30 06:58:47;;;;;;;23.75;9.00;;;;;;;;;;5068843;28;20038;-82
2022/11/30 07:01:20;;;;;;;20.02;8.75;;;;;;;;;;5063071;28;20054;-81
2022/11/30 07:03:48;;;;;;;16.20;6.50;;;;;;;;;;5060696;28;20042;-82
2022/11/30 07:06:20;;;;;;;10.52;5.60;;;;;;;;;;5077899;28;20045;-82
2022/11/30 07:08:48;;;;;;;9.40;5.10;;;;;;;;;;5075856;28;20033;-82
2022/11/30 07:11:16;;;;;;;123.65;7.32;;;;;;;;;;5073620;28;20110;-82
2022/11/30 07:13:44;;;;;;;67.82;5.68;;;;;;;;;;5081657;28;20104;-82
2022/11/30 07:16:22;;;;;;;95.32;6.68;;;;;;;;;;5067475;28;20243;-81
2022/11/30 07:18:50;;;;;;;84.47;6.75;;;;;;;;;;5063747;28;20030;-82
2022/11/30 07:21:20;;;;;;;19.27;6.07;;;;;;;;;;5062485;28;20049;-82
2022/11/30 07:26:36;;;;;;;10.77;6.07;;;;;;;;;;5070068;28;20060;-82
2022/11/30 07:29:04;;;;;;;13.95;6.65;;;;;;;;;;5061896;28;20118;-82
2022/11/30 07:31:35;;;;;;;22.25;7.30;;;;;;;;;;5066935;28;20049;-82
2022/11/30 07:34:05;;;;;;;18.15;7.88;;;;;;;;;;5065208;28;20057;-83
2022/11/30 07:36:36;;;;;;;15.20;7.07;;;;;;;;;;5073465;28;20045;-81
2022/11/30 07:39:07;;;;;;;13.52;7.30;;;;;;;;;;5066583;28;20899;-82
2022/11/30 07:41:45;;;;;;;12.05;5.97;;;;;;;;;;5067880;28;20095;-82
2022/11/30 07:44:12;;;;;;;24.33;6.57;;;;;;;;;;5082635;28;20123;-82
2022/11/30 07:46:41;;;;;;;13.77;6.35;;;;;;;;;;5085838;28;20064;-83
2022/11/30 07:49:12;;;;;;;11.68;6.20;;;;;;;;;;5058900;28;20064;-82
2022/11/30 07:51:39;;;;;;;15.50;6.78;;;;;;;;;;5072927;28;20051;-82
2022/11/30 07:54:07;;;;;;;13.35;6.80;;;;;;;;;;5069492;28;20046;-82
2022/11/30 07:56:36;;;;;;;21.80;7.35;;;;;;;;;;5063977;28;20053;-82
2022/11/30 07:59:05;;;;;;;18.25;7.10;;;;;;;;;;5082482;28;20060;-82
2022/11/30 08:01:33;;;;;;;13.48;6.88;;;;;;;;;;5067607;28;20064;-82
2022/11/30 08:04:01;;;;;;;10.88;5.40;;;;;;;;;;5063936;28;20049;-82
2022/11/30 08:06:29;;;;;;;12.23;5.55;;;;;;;;;;5075117;28;20085;-82
2022/11/30 08:09:03;;;;;;;13.80;5.45;;;;;;;;;;5069767;28;20038;-81
2022/11/30 08:11:32;;;;;;;12.75;5.90;;;;;;;;;;5069325;28;20059;-82
2022/11/30 08:14:00;;;;;;;11.52;5.53;;;;;;;;;;5071808;28;20060;-82
2022/11/30 08:16:28;;;;;;;10.68;5.53;;;;;;;;;;5069271;28;20045;-82
2022/11/30 08:18:56;;;;;;;17.65;5.80;;;;;;;;;;5063776;28;20049;-82
2022/11/30 08:21:24;;;;;;;13.20;5.07;;;;;;;;;;5072355;28;20053;-83
2022/11/30 08:23:52;;;;;;;20.25;6.47;;;;;;;;;;5061374;28;20148;-82
2022/11/30 08:26:20;;;;;;;9.75;5.53;;;;;;;;;;5063772;28;20053;-82
2022/11/30 08:28:49;;;;;;;13.85;6.90;;;;;;;;;;5069752;28;20101;-82
2022/11/30 08:31:22;;;;;;;14.73;6.80;;;;;;;;;;5063259;28;20050;-83
2022/11/30 08:33:53;;;;;;;30.73;6.45;;;;;;;;;;5065129;28;20107;-82
2022/11/30 08:36:22;;;;;;;11.00;5.78;;;;;;;;;;5070905;28;20492;-82
2022/11/30 08:38:49;;;;;;;13.02;6.65;;;;;;;;;;5060306;28;20087;-82
2022/11/30 08:41:21;;;;;;;10.73;6.05;;;;;;;;;;5064461;28;20053;-82
2022/11/30 08:43:49;;;;;;;14.63;6.95;;;;;;;;;;5071632;28;20096;-82
2022/11/30 08:46:21;;;;;;;10.63;6.88;;;;;;;;;;5066622;28;20140;-82
2022/11/30 08:49:11;;;;;;;13.80;7.05;;;;;;;;;;5074490;28;20077;-82
2022/11/30 08:51:50;;;;;;;13.25;8.00;;;;;;;;;;5071745;28;20055;-83
2022/11/30 08:54:38;;;;;;;13.90;8.70;;;;;;;;;;5061045;28;20048;-82
2022/11/30 08:57:06;;;;;;;16.58;9.40;;;;;;;;;;5064868;28;20043;-82
2022/11/30 08:59:36;;;;;;;19.88;10.20;;;;;;;;;;5070243;28;20100;-82
2022/11/30 09:02:06;;;;;;;17.92;9.43;;;;;;;;;;5072826;28;20503;-82
2022/11/30 09:04:41;;;;;;;17.35;9.70;;;;;;;;;;5067879;28;20053;-82
2022/11/30 09:07:11;;;;;;;17.02;9.20;;;;;;;;;;5069090;28;21385;-83
2022/11/30 09:09:45;;;;;;;20.00;9.77;;;;;;;;;;5073937;28;20044;-82
2022/11/30 09:12:12;;;;;;;21.30;9.60;;;;;;;;;;5067245;28;20046;-82
2022/11/30 09:14:44;;;;;;;17.73;8.88;;;;;;;;;;5066899;28;20046;-82
2022/11/30 09:17:15;;;;;;;15.27;8.98;;;;;;;;;;5057586;28;20079;-82
2022/11/30 09:19:43;;;;;;;22.08;10.05;;;;;;;;;;5062008;28;20065;-82
2022/11/30 09:22:10;;;;;;;19.25;9.95;;;;;;;;;;5062352;28;20113;-82
2022/11/30 09:24:38;;;;;;;20.48;11.07;;;;;;;;;;5061941;28;20049;-82
2022/11/30 09:27:05;;;;;;;24.88;12.00;;;;;;;;;;5068714;28;20044;-82
2022/11/30 09:29:32;;;;;;;25.00;12.43;;;;;;;;;;5072479;28;20049;-82
2022/11/30 09:31:59;;;;;;;25.83;13.13;;;;;;;;;;5062020;28;20052;-82
2022/11/30 09:34:27;;;;;;;25.95;11.88;;;;;;;;;;5072021;28;20064;-83
2022/11/30 09:36:54;;;;;;;27.92;12.43;;;;;;;;;;5095546;28;20045;-82
2022/11/30 09:39:21;;;;;;;24.42;12.82;;;;;;;;;;5078454;28;21265;-81
2022/11/30 09:42:10;;;;;;;26.95;12.85;;;;;;;;;;5069137;28;20037;-82
2022/11/30 09:44:43;;;;;;;31.20;14.57;;;;;;;;;;5067839;28;20101;-82
2022/11/30 09:47:13;;;;;;;34.33;15.73;;;;;;;;;;5068385;28;20053;-82
2022/11/30 09:49:43;;;;;;;41.65;16.23;;;;;;;;;;5069953;28;20064;-82
2022/11/30 09:52:15;;;;;;;40.47;16.65;;;;;;;;;;5080819;28;20076;-82
2022/11/30 09:54:44;;;;;;;34.40;15.50;;;;;;;;;;5067212;28;20087;-82
2022/11/30 09:57:20;;;;;;;40.47;17.05;;;;;;;;;;5068184;28;20048;-83
2022/11/30 09:59:53;;;;;;;33.20;16.45;;;;;;;;;;5069016;28;20232;-82
2022/11/30 10:02:31;;;;;;;31.08;16.85;;;;;;;;;;5069855;28;20049;-82
2022/11/30 10:04:59;;;;;;;31.92;17.13;;;;;;;;;;5068212;28;20041;-82
2022/11/30 10:07:39;;;;;;;33.58;17.17;;;;;;;;;;5073387;28;20045;-83
2022/11/30 10:10:17;;;;;;;35.40;17.88;;;;;;;;;;5065813;28;20033;-82
2022/11/30 10:13:00;;;;;;;;;;;;;;;;;;5067932;28;20100;-82
2022/11/30 10:15:34;;;;;;;30.05;16.65;;;;;;;;;;5069717;28;43808;-82
2022/11/30 10:18:01;;;;;;;;;;;;;;;;;;5066357;28;20107;-83
2022/11/30 10:20:50;;;;;;;28.77;16.20;;;;;;;;;;5060916;28;42544;-82
2022/11/30 10:23:29;;;;;;;30.23;16.90;;;;;;;;;;5073114;28;20044;-82
2022/11/30 10:25:58;;;;;;;28.92;16.55;;;;;;;;;;5076383;28;20045;-82
2022/11/30 10:28:34;;;;;;;32.35;17.60;;;;;;;;;;5083886;28;20062;-82
2022/11/30 10:31:16;;;;;;;34.58;16.83;;;;;;;;;;5068126;28;20036;-82
2022/11/30 10:33:49;;;;;;;29.02;17.95;;;;;;;;;;5068559;28;20128;-82
2022/11/30 10:36:40;;;;;;;26.35;16.95;;;;;;;;;;5074240;28;20076;-82
2022/11/30 10:39:18;;;;;;;26.27;16.38;;;;;;;;;;5065879;28;20056;-82
2022/11/30 10:41:48;;;;;;;29.13;17.70;;;;;;;;;;5088046;28;20056;-81
2022/11/30 10:44:18;;;;;;;28.75;16.45;;;;;;;;;;5071187;28;20423;-82
2022/11/30 10:46:53;;;;;;;34.00;16.92;;;;;;;;;;5074859;28;20095;-82
2022/11/30 10:49:22;;;;;;;30.45;17.52;;;;;;;;;;5067049;28;20117;-82
2022/11/30 10:51:53;;;;;;;27.13;16.02;;;;;;;;;;5069567;28;20030;-82
2022/11/30 10:54:22;;;;;;;32.55;17.33;;;;;;;;;;5073766;28;20057;-82
2022/11/30 10:56:49;;;;;;;32.90;17.52;;;;;;;;;;5067703;28;20043;-82
2022/11/30 10:59:23;;;;;;;30.88;17.38;;;;;;;;;;5059054;28;20065;-82
2022/11/30 11:01:52;;;;;;;27.75;17.05;;;;;;;;;;5068307;28;20147;-82
2022/11/30 11:04:24;;;;;;;31.02;18.33;;;;;;;;;;5067323;28;20041;-82
2022/11/30 11:06:56;;;;;;;30.88;17.08;;;;;;;;;;5065815;28;20101;-82
2022/11/30 11:09:23;;;;;;;30.35;18.08;;;;;;;;;;5076646;28;20046;-81
2022/11/30 11:11:53;;;;;;;32.20;17.05;;;;;;;;;;5089433;28;20077;-82
2022/11/30 11:14:22;;;;;;;28.67;16.42;;;;;;;;;;5067906;28;20045;-83
2022/11/30 11:16:52;;;;;;;27.58;16.08;;;;;;;;;;5067004;28;20048;-82
2022/11/30 11:19:42;;;;;;;25.60;15.68;;;;;;;;;;5069129;28;20067;-82
2022/11/30 11:22:12;;;;;;;25.15;15.60;;;;;;;;;;5070873;28;20100;-82
2022/11/30 11:24:42;;;;;;;28.30;15.40;;;;;;;;;;5068076;28;20045;-82
2022/11/30 11:27:23;;;;;;;27.67;15.18;;;;;;;;;;5073718;28;20041;-82
2022/11/30 11:30:06;;;;;;;21.05;13.48;;;;;;;;;;5067829;28;20048;-81
2022/11/30 11:32:35;;;;;;;26.20;14.73;;;;;;;;;;5064696;28;20060;-81
2022/11/30 11:35:24;;;;;;;27.27;14.77;;;;;;;;;;5078363;28;20037;-82
2022/11/30 11:37:51;;;;;;;24.48;14.27;;;;;;;;;;5066652;28;20049;-82
2022/11/30 11:40:21;;;;;;;27.88;15.00;;;;;;;;;;5069224;28;20060;-81
2022/11/30 11:42:50;;;;;;;24.20;14.85;;;;;;;;;;5068839;28;20053;-82
2022/11/30 11:45:17;;;;;;;23.35;13.32;;;;;;;;;;5072098;28;20052;-81
2022/11/30 11:47:45;;;;;;;24.13;14.13;;;;;;;;;;5063340;28;20109;-81
2022/11/30 11:50:12;;;;;;;23.55;13.57;;;;;;;;;;5082289;28;20048;-81
2022/11/30 11:52:45;;;;;;;23.48;14.52;;;;;;;;;;5073712;28;20041;-81
2022/11/30 11:55:16;;;;;;;23.83;14.07;;;;;;;;;;5075955;28;20059;-81
2022/11/30 11:57:44;;;;;;;21.17;12.38;;;;;;;;;;5063965;28;20109;-81
2022/11/30 12:00:11;;;;;;;20.42;12.18;;;;;;;;;;5072452;28;20045;-81
2022/11/30 12:03:10;;;;;;;20.75;12.40;;;;;;;;;;5069475;28;20060;-81
2022/11/30 12:05:45;;;;;;;17.85;11.82;;;;;;;;;;5067299;28;20045;-81
2022/11/30 12:08:28;;;;;;;24.55;12.02;;;;;;;;;;5064855;28;20056;-81
2022/11/30 12:11:01;;;;;;;20.23;11.52;;;;;;;;;;5058485;28;20073;-81
2022/11/30 12:13:33;;;;;;;20.92;12.48;;;;;;;;;;5063923;28;20053;-81
2022/11/30 12:16:21;;;;;;;18.50;11.85;;;;;;;;;;5077146;28;20064;-81
2022/11/30 12:18:53;;;;;;;20.38;12.60;;;;;;;;;;5061642;28;20069;-81
2022/11/30 12:21:35;;;;;;;18.20;11.18;;;;;;;;;;5070821;28;20045;-81
2022/11/30 12:24:12;;;;;;;23.58;11.80;;;;;;;;;;5062309;28;20069;-81
2022/11/30 12:26:45;;;;;;;20.98;12.00;;;;;;;;;;5073377;28;20158;-81
2022/11/30 12:29:21;;;;;;;21.45;13.02;;;;;;;;;;5070739;28;20042;-81
2022/11/30 12:32:11;;;;;;;25.70;13.75;;;;;;;;;;5056829;28;20080;-82
2022/11/30 12:35:03;;;;;;;22.42;12.05;;;;;;;;;;5059655;28;20049;-82
2022/11/30 12:37:40;;;;;;;26.10;13.80;;;;;;;;;;5074254;28;20064;-81
2022/11/30 12:40:20;;;;;;;22.88;12.75;;;;;;;;;;5073273;28;20073;-81
2022/11/30 12:43:01;;;;;;;22.95;13.95;;;;;;;;;;5064168;28;20038;-81
2022/11/30 12:45:38;;;;;;;25.40;14.68;;;;;;;;;;5068945;28;20561;-81
2022/11/30 12:48:34;;;;;;;24.58;13.50;;;;;;;;;;5071417;28;20065;-81
2022/11/30 12:51:09;;;;;;;24.40;15.02;;;;;;;;;;5065964;28;20113;-80
2022/11/30 12:53:51;;;;;;;23.50;14.10;;;;;;;;;;5061420;28;20037;-81
2022/11/30 12:56:27;;;;;;;32.03;14.93;;;;;;;;;;5062271;28;20034;-80
2022/11/30 12:59:14;;;;;;;25.38;15.35;;;;;;;;;;5069632;28;20040;-81
2022/11/30 13:01:53;;;;;;;23.58;14.93;;;;;;;;;;5089022;28;20105;-81
2022/11/30 13:04:30;;;;;;;25.75;15.27;;;;;;;;;;5070443;28;20091;-81
2022/11/30 13:07:07;;;;;;;;;;;;;;;;;;5067972;28;20502;-80
2022/11/30 13:09:41;;;;;;;26.05;15.27;;;;;;;;;;5066212;28;44853;-80
2022/11/30 13:12:13;;;;;;;27.50;15.55;;;;;;;;;;5062790;28;20052;-81
2022/11/30 13:14:43;;;;;;;24.98;13.68;;;;;;;;;;5065711;28;20049;-81
2022/11/30 13:17:18;;;;;;;27.80;15.07;;;;;;;;;;5067648;28;20056;-80
2022/11/30 13:20:03;;;;;;;23.83;14.48;;;;;;;;;;5067540;28;20136;-79
2022/11/30 13:22:49;;;;;;;27.13;15.23;;;;;;;;;;5068840;28;20140;-80
2022/11/30 13:25:24;;;;;;;30.52;15.55;;;;;;;;;;5071795;28;20097;-82
2022/11/30 13:28:20;;;;;;;;;;;;;;;;;;5052280;28;20535;-81
2022/11/30 13:31:02;;;;;;;24.38;14.40;;;;;;;;;;5058353;28;48207;-81
2022/11/30 13:33:36;;;;;;;27.45;14.98;;;;;;;;;;5057791;28;20123;-81
2022/11/30 13:36:20;;;;;;;27.98;14.10;;;;;;;;;;5060045;28;20049;-81
2022/11/30 13:39:08;;;;;;;24.98;14.52;;;;;;;;;;5055692;28;20069;-81
2022/11/30 13:41:37;;;;;;;26.67;14.32;;;;;;;;;;5056434;28;20137;-81
2022/11/30 13:44:22;;;;;;;25.20;14.90;;;;;;;;;;5055320;28;20113;-80
2022/11/30 13:46:51;;;;;;;23.70;13.90;;;;;;;;;;5054220;28;20056;-81
2022/11/30 13:49:26;;;;;;;25.52;13.68;;;;;;;;;;5055767;28;20041;-80
2022/11/30 13:51:53;;;;;;;23.67;13.88;;;;;;;;;;5061337;28;20052;-81
2022/11/30 13:54:49;;;;;;;24.30;13.02;;;;;;;;;;5047849;28;20080;-81
2022/11/30 13:57:29;;;;;;;25.95;14.43;;;;;;;;;;5052646;28;20097;-82
2022/11/30 14:00:00;;;;;;;24.50;13.70;;;;;;;;;;5049709;28;20044;-81
2022/11/30 14:02:35;;;;;;;24.58;13.30;;;;;;;;;;5061440;28;20056;-81
2022/11/30 14:05:17;;;;;;;22.45;12.40;;;;;;;;;;5057415;28;20136;-81
2022/11/30 14:08:00;;;;;;;21.52;12.75;;;;;;;;;;5064809;28;20050;-81
2022/11/30 14:10:34;;;;;;;20.85;11.73;;;;;;;;;;5053296;28;20060;-81
2022/11/30 14:13:10;;;;;;;23.48;12.25;;;;;;;;;;5054658;28;20049;-81
2022/11/30 14:15:37;;;;;;;;;;;;;;;;;;5055835;28;20049;-80
2022/11/30 14:18:07;;;;;;;23.58;12.20;;;;;;;;;;5048121;28;41871;-81
2022/11/30 14:20:39;;;;;;;24.15;13.05;;;;;;;;;;5055586;28;20061;-81
2022/11/30 14:23:11;;;;;;;26.13;12.98;;;;;;;;;;5055889;28;20042;-81
2022/11/30 14:25:46;;;;;;;22.10;12.00;;;;;;;;;;5057385;28;20049;-80
2022/11/30 14:28:17;;;;;;;27.83;13.43;;;;;;;;;;5052040;28;20483;-81
2022/11/30 14:30:45;;;;;;;23.42;12.88;;;;;;;;;;5053069;28;20068;-81
2022/11/30 14:33:17;;;;;;;25.45;13.05;;;;;;;;;;5058309;28;20046;-81
2022/11/30 14:35:48;;;;;;;25.25;13.02;;;;;;;;;;5055038;28;20084;-81
2022/11/30 14:38:22;;;;;;;23.08;12.55;;;;;;;;;;5048941;28;20554;-81
2022/11/30 14:40:51;;;;;;;25.17;12.20;;;;;;;;;;5044836;28;20062;-81
2022/11/30 14:43:19;;;;;;;22.27;12.00;;;;;;;;;;5053148;28;20052;-81
2022/11/30 14:46:00;;;;;;;23.00;11.32;;;;;;;;;;5050776;28;20054;-81
2022/11/30 14:48:33;;;;;;;22.25;11.77;;;;;;;;;;5053759;28;20049;-81
2022/11/30 14:51:02;;;;;;;22.17;11.88;;;;;;;;;;5043726;28;20045;-81
2022/11/30 14:53:36;;;;;;;22.75;10.90;;;;;;;;;;5053048;28;20053;-81